createdAt,value
2022-08-28T00:00:05.417Z,533
2022-08-28T00:05:23.899Z,533
2022-08-28T00:10:42.376Z,530
2022-08-28T00:16:00.609Z,553
2022-08-28T00:21:19.156Z,588
2022-08-28T00:26:37.897Z,617
2022-08-28T00:31:56.131Z,596
2022-08-28T00:37:14.055Z,588
2022-08-28T00:42:32.263Z,587
2022-08-28T00:47:51.002Z,588
2022-08-28T00:53:09.234Z,573
2022-08-28T00:58:27.687Z,542
2022-08-28T01:03:46.168Z,528
2022-08-28T01:09:04.639Z,525
2022-08-28T01:14:23.426Z,546
2022-08-28T01:19:41.911Z,549
2022-08-28T01:25:00.113Z,526
2022-08-28T01:30:18.867Z,581
2022-08-28T01:35:37.345Z,585
2022-08-28T01:40:56.130Z,611
2022-08-28T01:46:14.956Z,589
2022-08-28T01:51:35.120Z,556
2022-08-28T01:56:56.551Z,539
2022-08-28T02:02:15.329Z,548
2022-08-28T02:07:33.531Z,546
2022-08-28T02:12:51.447Z,531
2022-08-28T02:18:09.694Z,523
2022-08-28T02:23:28.366Z,517
2022-08-28T02:28:46.825Z,517
2022-08-28T02:34:05.332Z,516
2022-08-28T02:39:23.778Z,509
2022-08-28T02:44:42.280Z,501
2022-08-28T02:50:00.471Z,501
2022-08-28T02:55:19.225Z,500
2022-08-28T03:00:37.443Z,507
2022-08-28T03:05:55.942Z,509
2022-08-28T03:11:14.416Z,499
2022-08-28T03:16:32.690Z,499
2022-08-28T03:21:50.679Z,501
2022-08-28T03:27:11.401Z,499
2022-08-28T03:32:30.186Z,516
2022-08-28T03:37:48.926Z,508
2022-08-28T03:43:07.153Z,505
2022-08-28T03:48:25.533Z,506
2022-08-28T03:53:43.715Z,506
2022-08-28T03:59:02.198Z,531
2022-08-28T04:04:20.694Z,522
2022-08-28T04:09:39.481Z,516
2022-08-28T04:14:57.941Z,516
2022-08-28T04:20:16.431Z,509
2022-08-28T04:25:34.920Z,505
2022-08-28T04:30:53.149Z,512
2022-08-28T04:36:11.913Z,506
2022-08-28T04:41:30.667Z,509
2022-08-28T04:46:48.851Z,511
2022-08-28T04:52:07.494Z,531
2022-08-28T04:57:26.992Z,530
2022-08-28T05:02:45.509Z,513
2022-08-28T05:08:03.969Z,513
2022-08-28T05:13:22.735Z,526
2022-08-28T05:18:41.520Z,525
2022-08-28T05:23:59.685Z,528
2022-08-28T05:29:17.909Z,530
2022-08-28T05:34:36.376Z,518
2022-08-28T05:39:54.889Z,508
2022-08-28T05:45:13.111Z,519
2022-08-28T05:50:31.321Z,525
2022-08-28T05:55:51.677Z,524
2022-08-28T06:01:10.428Z,537
2022-08-28T06:06:28.599Z,612
2022-08-28T06:11:47.080Z,589
2022-08-28T06:17:05.017Z,576
2022-08-28T06:22:23.502Z,542
2022-08-28T06:27:41.700Z,548
2022-08-28T06:32:59.866Z,601
2022-08-28T06:38:18.587Z,596
2022-08-28T06:43:37.099Z,573
2022-08-28T06:48:55.862Z,673
2022-08-28T06:54:17.245Z,617
2022-08-28T06:59:41.602Z,566
2022-08-28T07:05:00.318Z,564
2022-08-28T07:10:18.599Z,596
2022-08-28T07:15:37.082Z,593
2022-08-28T07:21:00.194Z,576
2022-08-28T07:26:18.667Z,574
2022-08-28T07:31:37.504Z,584
2022-08-28T07:36:56.201Z,590
2022-08-28T07:42:14.411Z,610
2022-08-28T07:47:32.630Z,597
2022-08-28T07:52:51.338Z,634
2022-08-28T07:58:09.897Z,585
2022-08-28T08:03:28.013Z,536
2022-08-28T08:08:45.909Z,527
2022-08-28T08:14:05.410Z,529
2022-08-28T08:19:24.370Z,496
2022-08-28T08:24:43.095Z,464
2022-08-28T08:30:01.836Z,449
2022-08-28T08:35:20.025Z,530
2022-08-28T08:40:38.828Z,583
2022-08-28T08:45:57.490Z,606
2022-08-28T08:51:16.283Z,622
2022-08-28T08:56:35.292Z,620
2022-08-28T09:01:54.090Z,628
2022-08-28T09:07:12.629Z,630
2022-08-28T09:12:31.364Z,643
2022-08-28T09:17:49.815Z,655
2022-08-28T09:23:12.479Z,663
2022-08-28T09:28:32.683Z,662
2022-08-28T09:33:51.141Z,661
2022-08-28T09:39:09.646Z,658
2022-08-28T09:44:28.170Z,655
2022-08-28T09:49:46.037Z,651
2022-08-28T09:55:04.777Z,665
2022-08-28T11:28:46.416Z,634
2022-08-28T11:34:04.911Z,635
2022-08-28T11:39:23.353Z,640
2022-08-28T11:44:42.144Z,671
2022-08-28T11:50:03.013Z,704
2022-08-28T11:55:21.212Z,740
2022-08-28T12:00:39.998Z,748
2022-08-28T12:05:58.456Z,755
2022-08-28T12:11:17.210Z,750
2022-08-28T12:16:35.940Z,731
2022-08-28T12:21:54.776Z,720
2022-08-28T12:27:13.521Z,700
2022-08-28T12:32:32.021Z,657
2022-08-28T12:37:52.903Z,640
2022-08-28T12:43:11.625Z,636
2022-08-28T12:48:34.262Z,617
2022-08-28T12:53:53.030Z,589
2022-08-28T12:59:11.511Z,599
2022-08-28T13:04:30.280Z,592
2022-08-28T13:09:50.326Z,584
2022-08-28T13:15:08.514Z,573
2022-08-28T13:20:26.959Z,579
2022-08-28T13:25:45.432Z,580
2022-08-28T13:31:03.735Z,590
2022-08-28T13:36:22.088Z,589
2022-08-28T13:41:40.572Z,601
2022-08-28T13:46:58.629Z,613
2022-08-28T13:52:17.378Z,606
2022-08-28T13:57:36.355Z,592
2022-08-28T14:02:54.952Z,576
2022-08-28T14:08:13.729Z,566
2022-08-28T14:13:32.188Z,569
2022-08-28T14:18:50.946Z,612
2022-08-28T14:24:09.426Z,622
2022-08-28T14:29:28.188Z,589
2022-08-28T14:34:46.969Z,607
2022-08-28T14:40:05.463Z,597
2022-08-28T14:45:23.440Z,520
2022-08-28T14:50:41.445Z,451
2022-08-28T14:55:59.889Z,431
2022-08-28T15:01:18.801Z,421
2022-08-28T15:06:37.829Z,427
2022-08-28T15:11:56.599Z,457
2022-08-28T15:17:15.061Z,460
2022-08-28T15:22:32.994Z,466
2022-08-28T15:27:51.158Z,523
2022-08-28T15:33:09.379Z,578
2022-08-28T15:38:27.559Z,571
2022-08-28T15:43:47.714Z,530
2022-08-28T15:49:07.726Z,481
2022-08-28T15:54:28.531Z,455
2022-08-28T15:59:49.202Z,431
2022-08-28T16:05:08.526Z,424
2022-08-28T16:10:26.970Z,445
2022-08-28T16:15:45.410Z,447
2022-08-28T16:21:05.011Z,444
2022-08-28T16:26:23.376Z,448
2022-08-28T16:31:41.303Z,478
2022-08-28T16:36:59.634Z,489
2022-08-28T16:42:17.958Z,468
2022-08-28T16:47:36.679Z,473
2022-08-28T16:52:55.137Z,479
2022-08-28T16:58:16.797Z,481
2022-08-28T17:03:36.045Z,467
2022-08-28T17:08:56.805Z,468
2022-08-28T17:14:15.420Z,487
2022-08-28T17:19:33.906Z,495
2022-08-28T17:24:52.612Z,485
2022-08-28T17:30:11.291Z,479
2022-08-28T17:35:29.773Z,474
2022-08-28T17:40:48.212Z,475
2022-08-28T17:46:06.509Z,461
2022-08-28T17:51:27.321Z,451
2022-08-28T17:57:02.415Z,448
2022-08-28T18:02:20.842Z,440
2022-08-28T18:07:39.019Z,441
2022-08-28T18:12:57.761Z,442
2022-08-28T18:18:16.272Z,444
2022-08-28T18:23:35.160Z,447
2022-08-28T18:28:53.808Z,454
2022-08-28T18:34:12.444Z,456
2022-08-28T18:39:30.802Z,487
2022-08-28T18:44:50.586Z,527
2022-08-28T18:50:09.475Z,555
2022-08-28T18:55:28.364Z,562
2022-08-28T19:00:50.315Z,552
2022-08-28T19:06:09.060Z,539
2022-08-28T19:11:27.547Z,537
2022-08-28T19:16:45.754Z,535
2022-08-28T19:22:04.533Z,543
2022-08-28T19:27:23.292Z,540
2022-08-28T19:32:41.766Z,532
2022-08-28T19:38:00.531Z,523
2022-08-28T19:43:19.295Z,526
2022-08-28T19:48:38.578Z,534
2022-08-28T19:53:58.564Z,542
2022-08-28T19:59:17.311Z,547
2022-08-28T20:04:35.729Z,561
2022-08-28T20:09:54.210Z,569
2022-08-28T20:15:13.278Z,620
2022-08-28T20:20:34.704Z,646
2022-08-28T20:25:52.875Z,568
2022-08-28T20:31:11.677Z,531
2022-08-28T20:36:30.254Z,524
2022-08-28T20:41:48.487Z,523
2022-08-28T20:47:06.971Z,527
2022-08-28T20:52:27.211Z,616
2022-08-28T20:57:45.700Z,595
2022-08-28T21:03:04.154Z,608
2022-08-28T21:08:22.470Z,612
2022-08-28T21:13:40.968Z,653
2022-08-28T21:19:15.053Z,645
2022-08-28T21:24:34.840Z,632
2022-08-28T21:29:53.335Z,579
2022-08-28T21:35:11.784Z,563
2022-08-28T21:40:30.589Z,566
2022-08-28T21:45:48.978Z,549
2022-08-28T21:51:07.308Z,550
2022-08-28T21:56:25.967Z,563
2022-08-28T22:01:44.808Z,556
2022-08-28T22:07:03.383Z,555
2022-08-28T22:12:21.599Z,566
2022-08-28T22:17:40.098Z,542
2022-08-28T22:22:58.554Z,538
2022-08-28T22:28:16.744Z,536
2022-08-28T22:33:35.249Z,529
2022-08-28T22:38:53.999Z,527
2022-08-28T22:44:12.498Z,532
2022-08-28T22:49:30.968Z,547
2022-08-28T22:54:52.328Z,576
2022-08-28T23:00:11.454Z,603
2022-08-28T23:05:29.934Z,626
2022-08-28T23:10:58.818Z,646
2022-08-28T23:16:17.934Z,658
2022-08-28T23:21:36.236Z,665
2022-08-28T23:27:19.654Z,669
2022-08-28T23:32:54.647Z,658
2022-08-28T23:38:13.228Z,645
2022-08-28T23:43:32.088Z,642
2022-08-28T23:48:50.572Z,646
2022-08-28T23:54:09.775Z,638
2022-08-28T23:59:28.540Z,630
